Tavistock, United Kingdom
Current Conditions -  °F | °C
As of 11:20 AM on Thursday 18 Dec 2014 (Local Time) from EGTE Reporting Station
Scattered Clouds Scattered Clouds  
Wind Chill: 57°   Ceiling: Unl
Heat Index: 57°   Visibility: 6mi
Dew Point: 50°   Wind: 15mph
Humidity: 77%   Direction: 250°WSW
Pressure: 29.91"   Gusts: NA
Location:  50.55°N, 4.15°W
Report Text: EGTE 181120Z 25013KT 9999 SCT024 14/10 Q1013
Loading
Personal Weather Stations






























Interactive Weather Map New forecast layout! Learn more

10-Day Weather Forecast

Advertisements
Track Severe Weather on mobile